createdAt,value
2023-04-26T00:02:25.131Z,100851.81
2023-04-26T00:04:56.089Z,100861.63
2023-04-26T00:07:24.705Z,100858.28
2023-04-26T00:09:53.314Z,100861.84
2023-04-26T00:12:22.635Z,100850.69
2023-04-26T00:14:50.556Z,100862.19
2023-04-26T00:17:18.393Z,100857.75
2023-04-26T00:19:46.871Z,100860.50
2023-04-26T00:22:15.222Z,100860.50
2023-04-26T00:24:43.384Z,100862.16
2023-04-26T00:27:11.284Z,100853.38
2023-04-26T00:29:40.692Z,100864.06
2023-04-26T00:32:08.610Z,100868.94
2023-04-26T00:34:36.860Z,100861.22
2023-04-26T00:37:05.743Z,100868.06
2023-04-26T00:39:33.699Z,100866.25
2023-04-26T00:42:01.726Z,100852.16
2023-04-26T00:44:29.669Z,100862.78
2023-04-26T00:46:58.908Z,100857.63
2023-04-26T00:49:27.038Z,100866.72
2023-04-26T00:51:55.051Z,100865.28
2023-04-26T00:54:22.968Z,100857.25
2023-04-26T00:56:53.070Z,100861.91
2023-04-26T00:59:21.543Z,100862.13
2023-04-26T01:01:49.572Z,100860.47
2023-04-26T01:04:19.293Z,100861.63
2023-04-26T01:06:47.487Z,100863.25
2023-04-26T01:09:16.372Z,100865.16
2023-04-26T01:11:45.021Z,100870.31
2023-04-26T01:14:13.068Z,100865.66
2023-04-26T01:16:41.347Z,100872.81
2023-04-26T01:19:11.026Z,100874.00
2023-04-26T01:21:42.038Z,100873.69
2023-04-26T01:24:12.646Z,100868.22
2023-04-26T01:26:45.414Z,100878.75
2023-04-26T01:29:16.492Z,100873.38
2023-04-26T01:31:44.453Z,100878.25
2023-04-26T01:34:12.502Z,100888.22
2023-04-26T01:36:40.578Z,100885.81
2023-04-26T01:39:09.218Z,100889.22
2023-04-26T01:41:38.523Z,100892.59
2023-04-26T01:44:06.664Z,100890.16
2023-04-26T01:46:34.551Z,100896.59
2023-04-26T01:49:02.806Z,100885.66
2023-04-26T01:51:31.251Z,100885.03
2023-04-26T01:53:59.170Z,100888.19
2023-04-26T01:56:27.025Z,100896.81
2023-04-26T01:58:57.317Z,100892.38
2023-04-26T02:01:25.402Z,100891.97
2023-04-26T02:03:53.322Z,100893.03
2023-04-26T02:06:22.057Z,100894.00
2023-04-26T02:08:49.939Z,100890.94
2023-04-26T02:11:18.004Z,100889.03
2023-04-26T02:13:45.999Z,100900.50
2023-04-26T02:16:16.405Z,100893.91
2023-04-26T02:18:44.824Z,100891.38
2023-04-26T02:21:13.183Z,100894.72
2023-04-26T02:23:41.102Z,100892.31
2023-04-26T02:26:11.607Z,100887.16
2023-04-26T02:28:39.655Z,100887.47
2023-04-26T02:31:07.670Z,100890.22
2023-04-26T02:33:36.997Z,100883.38
2023-04-26T02:36:06.053Z,100884.31
2023-04-26T02:38:36.247Z,100888.63
2023-04-26T02:41:06.029Z,100887.19
2023-04-26T02:43:34.594Z,100899.81
2023-04-26T02:46:02.599Z,100892.09
2023-04-26T02:48:32.042Z,100885.16
2023-04-26T02:51:01.330Z,100890.31
2023-04-26T02:53:29.488Z,100889.59
2023-04-26T02:55:57.267Z,100883.91
2023-04-26T02:58:25.085Z,100882.97
2023-04-26T03:00:54.438Z,100883.47
2023-04-26T03:03:22.921Z,100881.06
2023-04-26T03:05:51.192Z,100892.53
2023-04-26T03:08:20.671Z,100883.69
2023-04-26T03:10:48.521Z,100892.75
2023-04-26T03:13:16.409Z,100898.97
2023-04-26T03:15:46.225Z,100892.75
2023-04-26T03:18:14.387Z,100889.91
2023-04-26T03:20:42.961Z,100899.81
2023-04-26T03:23:11.032Z,100903.50
2023-04-26T03:25:40.426Z,100894.66
2023-04-26T03:28:08.314Z,100901.25
2023-04-26T03:30:36.963Z,100895.81
2023-04-26T03:33:05.994Z,100900.31
2023-04-26T03:35:33.922Z,100908.75
2023-04-26T03:38:02.290Z,100903.16
2023-04-26T03:40:30.139Z,100917.03
2023-04-26T03:42:59.401Z,100906.63
2023-04-26T03:45:27.790Z,100909.25
2023-04-26T03:47:56.700Z,100907.47
2023-04-26T03:50:24.965Z,100906.72
2023-04-26T03:52:53.182Z,100909.78
2023-04-26T03:55:21.452Z,100916.31
2023-04-26T03:57:49.394Z,100909.03
2023-04-26T04:00:18.683Z,100914.81
2023-04-26T04:02:49.028Z,100912.19
2023-04-26T04:05:24.602Z,100927.34
2023-04-26T04:07:53.154Z,100928.59
2023-04-26T04:10:23.089Z,100929.44
2023-04-26T04:12:51.130Z,100925.88
2023-04-26T04:15:21.566Z,100924.41
2023-04-26T04:17:50.357Z,100928.19
2023-04-26T04:20:18.394Z,100919.34
2023-04-26T04:22:46.414Z,100920.31
2023-04-26T04:25:14.778Z,100927.25
2023-04-26T04:27:43.542Z,100933.44
2023-04-26T04:30:12.747Z,100926.09
2023-04-26T04:32:45.242Z,100933.25
2023-04-26T04:35:14.403Z,100930.53
2023-04-26T04:37:43.910Z,100937.56
2023-04-26T04:40:13.248Z,100924.31
2023-04-26T04:42:44.435Z,100931.25
2023-04-26T04:45:12.791Z,100934.19
2023-04-26T04:47:42.491Z,100939.97
2023-04-26T04:50:10.728Z,100948.41
2023-04-26T04:52:39.073Z,100952.09
2023-04-26T04:55:07.589Z,100947.69
2023-04-26T04:57:37.206Z,100950.53
2023-04-26T05:00:10.365Z,100946.28
2023-04-26T05:02:45.968Z,100956.94
2023-04-26T05:05:14.071Z,100961.03
2023-04-26T05:07:42.014Z,100957.78
2023-04-26T05:10:10.714Z,100958.06
2023-04-26T05:12:38.792Z,100963.34
2023-04-26T05:15:09.263Z,100964.00
2023-04-26T05:17:37.239Z,100967.69
2023-04-26T05:20:15.967Z,100970.31
2023-04-26T05:22:44.376Z,100967.88
2023-04-26T05:25:13.820Z,100970.38
2023-04-26T05:27:42.384Z,100973.44
2023-04-26T05:30:21.454Z,100975.00
2023-04-26T05:33:16.027Z,100986.28
2023-04-26T05:35:52.522Z,100975.81
2023-04-26T05:38:21.887Z,100985.53
2023-04-26T05:40:49.894Z,100983.72
2023-04-26T05:43:17.852Z,100992.88
2023-04-26T05:45:52.135Z,100989.91
2023-04-26T05:48:21.616Z,100990.84
2023-04-26T05:50:52.306Z,100987.03
2023-04-26T05:53:21.017Z,100990.06
2023-04-26T05:55:49.139Z,100990.38
2023-04-26T05:58:17.133Z,100991.97
2023-04-26T06:00:46.099Z,100997.03
2023-04-26T06:03:14.150Z,101001.84
2023-04-26T06:05:42.287Z,101005.09
2023-04-26T06:08:11.652Z,101005.16
2023-04-26T06:10:39.462Z,101002.25
2023-04-26T06:13:07.827Z,101022.59
2023-04-26T06:15:38.022Z,101009.16
2023-04-26T06:18:06.999Z,101002.53
2023-04-26T06:20:34.914Z,101005.84
2023-04-26T06:23:03.528Z,101007.09
2023-04-26T06:25:33.941Z,101004.28
2023-04-26T06:28:02.082Z,100997.09
2023-04-26T06:30:30.002Z,101009.63
2023-04-26T06:33:00.089Z,100999.84
2023-04-26T06:35:28.179Z,101003.06
2023-04-26T06:37:56.100Z,101012.16
2023-04-26T06:40:24.148Z,101011.69
2023-04-26T06:42:54.342Z,101012.38
2023-04-26T06:45:43.652Z,101020.94
2023-04-26T06:48:13.165Z,101010.13
2023-04-26T06:50:41.542Z,101014.69
2023-04-26T06:53:09.477Z,101009.41
2023-04-26T06:55:37.376Z,101011.44
2023-04-26T06:58:06.613Z,101014.94
2023-04-26T07:00:34.548Z,101008.69
2023-04-26T07:03:02.615Z,101020.03
2023-04-26T07:05:30.644Z,101011.81
2023-04-26T07:07:58.611Z,101009.00
2023-04-26T07:10:27.502Z,101018.53
2023-04-26T07:12:55.781Z,101001.28
2023-04-26T07:15:25.122Z,101015.78
2023-04-26T07:17:53.066Z,101015.50
2023-04-26T07:20:22.704Z,101019.28
2023-04-26T07:22:51.092Z,101018.25
2023-04-26T07:25:19.584Z,101017.09
2023-04-26T07:27:47.542Z,101030.41
2023-04-26T07:30:16.213Z,101019.06
2023-04-26T07:32:45.742Z,101025.81
2023-04-26T07:35:16.215Z,101012.38
2023-04-26T07:37:44.919Z,101017.50
2023-04-26T07:40:15.188Z,101008.69
2023-04-26T07:42:43.127Z,101017.94
2023-04-26T07:45:12.316Z,101012.84
2023-04-26T07:47:40.199Z,101024.25
2023-04-26T07:50:11.549Z,101026.91
2023-04-26T07:52:39.363Z,101033.50
2023-04-26T07:55:08.133Z,101031.00
2023-04-26T07:57:36.295Z,101030.09
2023-04-26T08:00:07.758Z,101037.66
2023-04-26T08:02:44.941Z,101025.13
2023-04-26T08:05:15.795Z,101035.00
2023-04-26T08:07:44.346Z,101036.13
2023-04-26T08:10:12.597Z,101039.72
2023-04-26T08:12:40.486Z,101033.13
2023-04-26T08:15:09.236Z,101036.63
2023-04-26T08:17:37.536Z,101040.63
2023-04-26T08:20:06.995Z,101046.38
2023-04-26T08:22:36.262Z,101042.72
2023-04-26T08:25:05.490Z,101044.34
2023-04-26T08:27:34.410Z,101046.03
2023-04-26T08:30:02.320Z,101050.69
2023-04-26T08:32:31.350Z,101042.97
2023-04-26T08:34:59.546Z,101037.78
2023-04-26T08:37:29.654Z,101033.34
2023-04-26T08:39:58.952Z,101038.09
2023-04-26T08:42:28.825Z,101045.50
2023-04-26T08:44:57.024Z,101036.56
2023-04-26T08:47:31.639Z,101040.06
2023-04-26T08:50:02.594Z,101052.94
2023-04-26T08:52:32.166Z,101059.91
2023-04-26T08:55:01.840Z,101056.47
2023-04-26T08:57:31.333Z,101053.38
2023-04-26T08:59:59.276Z,101051.25
2023-04-26T09:02:27.425Z,101043.69
2023-04-26T09:04:56.173Z,101036.28
2023-04-26T09:07:30.844Z,101038.44
2023-04-26T09:10:00.889Z,101053.69
2023-04-26T09:12:28.820Z,101052.88
2023-04-26T09:14:57.707Z,101052.59
2023-04-26T09:17:29.394Z,101047.13
2023-04-26T09:19:57.751Z,101049.19
2023-04-26T09:22:30.272Z,101045.38
2023-04-26T09:24:58.280Z,101060.06
2023-04-26T09:27:35.629Z,101055.56
2023-04-26T09:30:07.583Z,101049.94
2023-04-26T09:32:46.316Z,101058.50
2023-04-26T09:35:28.916Z,101047.06
2023-04-26T09:38:04.102Z,101053.06
2023-04-26T09:40:34.649Z,101050.13
2023-04-26T09:43:05.801Z,101052.63
2023-04-26T09:45:41.795Z,101059.38
2023-04-26T09:48:22.454Z,101058.50
2023-04-26T09:50:52.228Z,101052.34
2023-04-26T09:53:27.657Z,101049.81
2023-04-26T09:55:56.030Z,101054.56
2023-04-26T09:58:25.539Z,101055.63
2023-04-26T10:00:54.453Z,101048.16
2023-04-26T10:03:24.352Z,101046.06
2023-04-26T10:05:52.651Z,101043.69
2023-04-26T10:08:20.504Z,101050.06
2023-04-26T10:10:49.008Z,101044.69
2023-04-26T10:13:17.530Z,101045.53
2023-04-26T10:15:47.192Z,101059.63
2023-04-26T10:18:15.132Z,101055.72
2023-04-26T10:20:46.288Z,101060.91
2023-04-26T10:23:20.023Z,101057.44
2023-04-26T10:25:48.230Z,101059.19
2023-04-26T10:28:17.412Z,101051.16
2023-04-26T10:31:00.176Z,101055.31
2023-04-26T10:33:30.062Z,101063.44
2023-04-26T10:36:09.308Z,101063.84
2023-04-26T10:38:39.314Z,101071.50
2023-04-26T10:41:32.229Z,101069.94
2023-04-26T10:44:16.014Z,101067.94
2023-04-26T10:46:51.640Z,101070.91
2023-04-26T10:49:24.961Z,101076.63
2023-04-26T10:52:14.708Z,101069.50
2023-04-26T10:54:53.164Z,101072.38
2023-04-26T10:57:21.515Z,101068.13
2023-04-26T11:02:58.143Z,101065.41
2023-04-26T11:05:52.373Z,101058.72
2023-04-26T11:08:21.159Z,101054.06
2023-04-26T11:10:54.436Z,101057.91
2023-04-26T11:13:22.327Z,101056.47
2023-04-26T11:15:54.522Z,101065.81
2023-04-26T11:18:23.900Z,101068.03
2023-04-26T11:20:51.865Z,101063.00
2023-04-26T11:23:20.631Z,101067.59
2023-04-26T11:25:48.473Z,101067.19
2023-04-26T11:28:16.971Z,101048.84
2023-04-26T11:30:44.901Z,101066.66
2023-04-26T11:33:17.889Z,101067.50
2023-04-26T11:35:47.691Z,101064.91
2023-04-26T11:38:15.964Z,101076.06
2023-04-26T11:40:43.808Z,101066.53
2023-04-26T11:43:13.647Z,101058.50
2023-04-26T11:45:41.691Z,101055.56
2023-04-26T11:48:11.894Z,101056.97
2023-04-26T11:50:40.325Z,101071.44
2023-04-26T11:53:10.057Z,101065.19
2023-04-26T11:55:37.937Z,101079.94
2023-04-26T11:58:14.645Z,101070.69
2023-04-26T12:01:03.387Z,101077.03
2023-04-26T12:03:33.246Z,101082.16
2023-04-26T12:06:02.180Z,101080.59
2023-04-26T12:08:31.589Z,101082.03
2023-04-26T12:11:00.937Z,101077.47
2023-04-26T12:13:29.399Z,101074.34
2023-04-26T12:15:57.393Z,101077.25
2023-04-26T12:18:31.588Z,101058.19
2023-04-26T12:21:00.466Z,101088.53
2023-04-26T12:23:41.846Z,101074.38
2023-04-26T12:26:11.974Z,101063.31
2023-04-26T12:28:39.982Z,101069.59
2023-04-26T12:31:08.352Z,101079.41
2023-04-26T12:33:36.739Z,101072.09
2023-04-26T12:36:09.348Z,101082.44
2023-04-26T12:38:37.415Z,101092.09
2023-04-26T12:41:07.100Z,101073.88
2023-04-26T12:43:34.959Z,101074.22
2023-04-26T12:46:02.938Z,101092.09
2023-04-26T12:48:30.849Z,101094.03
2023-04-26T12:50:58.707Z,101088.59
2023-04-26T12:53:26.944Z,101088.03
2023-04-26T12:55:54.763Z,101087.06
2023-04-26T12:58:25.547Z,101079.19
2023-04-26T13:00:53.399Z,101082.63
2023-04-26T13:03:21.327Z,101084.28
2023-04-26T13:05:49.479Z,101075.25
2023-04-26T13:08:17.415Z,101072.56
2023-04-26T13:10:45.362Z,101073.22
2023-04-26T13:13:13.236Z,101076.44
2023-04-26T13:15:42.478Z,101075.88
2023-04-26T13:18:10.396Z,101080.38
2023-04-26T13:20:38.675Z,101070.00
2023-04-26T13:23:06.807Z,101069.03
2023-04-26T13:25:34.731Z,101072.81
2023-04-26T13:28:02.998Z,101066.28
2023-04-26T13:30:31.387Z,101073.31
2023-04-26T13:33:01.094Z,101064.63
2023-04-26T13:35:29.146Z,101073.06
2023-04-26T13:37:57.222Z,101066.72
2023-04-26T13:40:25.083Z,101074.84
2023-04-26T13:42:52.930Z,101071.47
2023-04-26T13:45:21.005Z,101076.69
2023-04-26T13:47:48.835Z,101079.63
2023-04-26T13:50:18.248Z,101082.97
2023-04-26T13:52:46.430Z,101085.31
2023-04-26T13:55:14.481Z,101083.75
2023-04-26T13:57:42.573Z,101087.88
2023-04-26T14:00:11.869Z,101101.44
2023-04-26T14:02:39.870Z,101102.72
2023-04-26T14:05:09.161Z,101103.00
2023-04-26T14:07:38.541Z,101094.03
2023-04-26T14:10:07.420Z,101086.53
2023-04-26T14:12:35.504Z,101087.50
2023-04-26T14:15:05.558Z,101089.69
2023-04-26T14:17:33.778Z,101100.28
2023-04-26T14:20:02.114Z,101089.56
2023-04-26T14:22:29.917Z,101088.97
2023-04-26T14:24:59.206Z,101100.47
2023-04-26T14:27:27.582Z,101103.69
2023-04-26T14:29:55.697Z,101095.31
2023-04-26T14:32:24.513Z,101094.31
2023-04-26T14:34:52.492Z,101089.38
2023-04-26T14:37:22.413Z,101089.16
2023-04-26T14:39:50.565Z,101098.63
2023-04-26T14:42:19.852Z,101102.28
2023-04-26T14:44:47.719Z,101101.75
2023-04-26T14:47:15.666Z,101102.06
2023-04-26T14:49:43.646Z,101103.56
2023-04-26T14:52:11.718Z,101105.41
2023-04-26T14:54:40.092Z,101099.78
2023-04-26T14:57:08.019Z,101105.47
2023-04-26T14:59:37.536Z,101104.97
2023-04-26T15:02:05.652Z,101099.63
2023-04-26T15:04:33.846Z,101110.97
2023-04-26T15:07:02.631Z,101106.22
2023-04-26T15:09:30.904Z,101100.47
2023-04-26T15:11:58.787Z,101113.06
2023-04-26T15:14:26.801Z,101108.00
2023-04-26T15:16:56.134Z,101102.16
2023-04-26T15:19:24.082Z,101096.28
2023-04-26T15:21:52.076Z,101093.47
2023-04-26T15:24:19.837Z,101089.84
2023-04-26T15:26:47.682Z,101090.41
2023-04-26T15:29:15.860Z,101083.56
2023-04-26T15:31:43.801Z,101095.44
2023-04-26T15:34:13.078Z,101089.28
2023-04-26T15:36:40.875Z,101098.66
2023-04-26T15:39:09.073Z,101096.81
2023-04-26T15:41:36.961Z,101084.81
2023-04-26T15:44:05.426Z,101096.16
2023-04-26T15:46:33.248Z,101102.16
2023-04-26T15:49:01.213Z,101096.16
2023-04-26T15:51:30.527Z,101094.47
2023-04-26T15:53:59.353Z,101100.06
2023-04-26T15:56:27.435Z,101098.06
2023-04-26T15:58:57.134Z,101102.69
2023-04-26T16:01:25.182Z,101103.53
2023-04-26T16:03:53.597Z,101106.34
2023-04-26T16:06:21.771Z,101108.28
2023-04-26T16:08:50.986Z,101108.00
2023-04-26T16:11:18.994Z,101107.88
2023-04-26T16:13:51.627Z,101103.00
2023-04-26T16:16:19.638Z,101102.28
2023-04-26T16:18:47.613Z,101096.38
2023-04-26T16:21:16.106Z,101113.31
2023-04-26T16:23:44.023Z,101115.13
2023-04-26T16:26:13.322Z,101110.81
2023-04-26T16:28:41.213Z,101119.19
2023-04-26T16:31:09.617Z,101113.59
2023-04-26T16:33:37.559Z,101118.63
2023-04-26T16:36:06.034Z,101112.75
2023-04-26T16:38:36.114Z,101108.53
2023-04-26T16:41:04.247Z,101113.94
2023-04-26T16:43:33.668Z,101111.03
2023-04-26T16:46:02.530Z,101109.63
2023-04-26T16:48:31.690Z,101118.31
2023-04-26T16:50:59.712Z,101107.84
2023-04-26T16:53:27.711Z,101115.25
2023-04-26T16:55:55.577Z,101108.56
2023-04-26T16:58:23.501Z,101110.09
2023-04-26T17:00:53.001Z,101108.53
2023-04-26T17:03:21.306Z,101116.25
2023-04-26T17:05:49.653Z,101107.44
2023-04-26T17:08:18.076Z,101109.09
2023-04-26T17:10:47.152Z,101121.66
2023-04-26T17:13:15.134Z,101112.31
2023-04-26T17:15:43.500Z,101108.28
2023-04-26T17:18:12.909Z,101114.41
2023-04-26T17:20:41.855Z,101118.22
2023-04-26T17:23:09.978Z,101115.69
2023-04-26T17:25:37.825Z,101117.50
2023-04-26T17:28:05.831Z,101124.38
2023-04-26T17:30:33.890Z,101128.13
2023-04-26T17:33:01.958Z,101128.13
2023-04-26T17:35:31.330Z,101136.22
2023-04-26T17:37:59.282Z,101141.47
2023-04-26T17:40:27.266Z,101140.88
2023-04-26T17:42:55.234Z,101145.22
2023-04-26T17:45:23.415Z,101142.50
2023-04-26T17:47:51.395Z,101152.97
2023-04-26T17:50:20.974Z,101151.69
2023-04-26T17:52:50.648Z,101142.63
2023-04-26T17:55:18.712Z,101145.22
2023-04-26T17:57:46.696Z,101144.34
2023-04-26T18:00:15.686Z,101158.44
2023-04-26T18:02:44.093Z,101156.88
2023-04-26T18:05:13.380Z,101159.06
2023-04-26T18:07:41.270Z,101155.44
2023-04-26T18:10:11.224Z,101158.63
2023-04-26T18:12:39.757Z,101158.19
2023-04-26T18:15:08.985Z,101160.09
2023-04-26T18:17:37.115Z,101169.56
2023-04-26T18:20:06.532Z,101168.59
2023-04-26T18:22:34.448Z,101171.25
2023-04-26T18:25:02.278Z,101174.59
2023-04-26T18:27:32.113Z,101172.63
2023-04-26T18:30:00.195Z,101173.09
2023-04-26T18:32:28.089Z,101171.38
2023-04-26T18:34:56.098Z,101178.63
2023-04-26T18:37:24.259Z,101178.13
2023-04-26T18:39:52.196Z,101179.94
2023-04-26T18:42:20.089Z,101180.19
2023-04-26T18:44:49.362Z,101188.53
2023-04-26T18:47:17.178Z,101188.78
2023-04-26T18:49:45.131Z,101190.75
2023-04-26T18:52:13.113Z,101194.09
2023-04-26T18:54:41.209Z,101191.91
2023-04-26T18:57:10.486Z,101196.81
2023-04-26T18:59:38.647Z,101205.00
2023-04-26T19:02:08.068Z,101202.25
2023-04-26T19:04:36.121Z,101204.19
2023-04-26T19:07:04.359Z,101205.25
2023-04-26T19:09:42.842Z,101208.13
2023-04-26T19:12:18.720Z,101215.97
2023-04-26T19:14:46.651Z,101208.97
2023-04-26T19:17:15.893Z,101219.09
2023-04-26T19:19:43.772Z,101210.84
2023-04-26T19:22:11.738Z,101223.81
2023-04-26T19:24:39.537Z,101211.22
2023-04-26T19:27:07.449Z,101209.16
2023-04-26T19:29:35.386Z,101215.41
2023-04-26T19:32:06.637Z,101217.94
2023-04-26T19:34:38.739Z,101215.56
2023-04-26T19:37:07.014Z,101234.22
2023-04-26T19:39:34.947Z,101224.00
2023-04-26T19:42:03.305Z,101217.50
2023-04-26T19:44:32.180Z,101231.94
2023-04-26T19:47:00.040Z,101226.06
2023-04-26T19:49:29.110Z,101226.41
2023-04-26T19:51:58.474Z,101229.69
2023-04-26T19:54:26.381Z,101233.16
2023-04-26T19:56:54.332Z,101231.50
2023-04-26T19:59:22.358Z,101231.25
2023-04-26T20:01:51.646Z,101230.31
2023-04-26T20:04:21.859Z,101241.22
2023-04-26T20:06:49.818Z,101240.88
2023-04-26T20:09:19.092Z,101243.41
2023-04-26T20:11:47.388Z,101238.38
2023-04-26T20:14:15.994Z,101244.75
2023-04-26T20:16:44.235Z,101245.47
2023-04-26T20:19:12.159Z,101243.19
2023-04-26T20:21:40.059Z,101239.91
2023-04-26T20:24:08.487Z,101243.19
2023-04-26T20:26:37.793Z,101250.03
2023-04-26T20:29:05.909Z,101248.34
2023-04-26T20:31:33.946Z,101247.50
2023-04-26T20:34:01.861Z,101255.31
2023-04-26T20:36:29.917Z,101253.38
2023-04-26T20:38:57.731Z,101254.09
2023-04-26T20:41:25.702Z,101262.28
2023-04-26T20:43:55.005Z,101255.19
2023-04-26T20:46:23.000Z,101255.44
2023-04-26T20:48:50.830Z,101251.84
2023-04-26T20:51:18.685Z,101253.88
2023-04-26T20:53:46.510Z,101250.38
2023-04-26T20:56:14.347Z,101249.91
2023-04-26T20:58:42.213Z,101254.38
2023-04-26T21:01:11.444Z,101251.94
2023-04-26T21:03:39.576Z,101256.50
2023-04-26T21:06:07.537Z,101257.94
2023-04-26T21:08:36.818Z,101261.78
2023-04-26T21:11:04.961Z,101256.75
2023-04-26T21:13:32.892Z,101253.38
2023-04-26T21:16:02.542Z,101257.59
2023-04-26T21:18:31.785Z,101256.50
2023-04-26T21:20:59.583Z,101252.66
2023-04-26T21:23:27.410Z,101257.22
2023-04-26T21:25:55.241Z,101256.25
2023-04-26T21:28:23.127Z,101254.47
2023-04-26T21:30:51.036Z,101257.50
2023-04-26T21:33:18.985Z,101254.00
2023-04-26T21:35:48.214Z,101256.03
2023-04-26T21:38:16.036Z,101252.66
2023-04-26T21:40:43.862Z,101262.78
2023-04-26T21:43:11.737Z,101262.06
2023-04-26T21:45:39.623Z,101254.13
2023-04-26T21:48:07.467Z,101265.66
2023-04-26T21:50:35.426Z,101265.78
2023-04-26T21:53:04.652Z,101266.88
2023-04-26T21:55:32.630Z,101265.66
2023-04-26T21:58:00.484Z,101263.72
2023-04-26T22:00:28.382Z,101261.72
2023-04-26T22:02:56.389Z,101260.97
2023-04-26T22:05:25.722Z,101272.06
2023-04-26T22:07:53.756Z,101270.72
2023-04-26T22:10:22.964Z,101270.94
2023-04-26T22:12:50.808Z,101273.97
2023-04-26T22:15:18.675Z,101273.25
2023-04-26T22:17:46.626Z,101279.28
2023-04-26T22:20:14.872Z,101287.41
2023-04-26T22:22:42.850Z,101283.94
2023-04-26T22:25:11.176Z,101277.31
2023-04-26T22:27:40.452Z,101288.75
2023-04-26T22:30:22.735Z,101296.69
2023-04-26T22:32:54.468Z,101304.38
2023-04-26T22:35:23.081Z,101302.47
2023-04-26T22:37:51.504Z,101298.25
2023-04-26T22:40:19.473Z,101299.09
2023-04-26T22:42:48.682Z,101299.09
2023-04-26T22:45:16.733Z,101309.56
2023-04-26T22:47:44.671Z,101306.06
2023-04-26T22:50:12.956Z,101310.31
2023-04-26T22:52:40.997Z,101314.25
2023-04-26T22:55:10.054Z,101308.03
2023-04-26T22:57:38.271Z,101310.50
2023-04-26T23:00:12.243Z,101311.00
2023-04-26T23:02:40.228Z,101316.66
2023-04-26T23:05:10.233Z,101310.63
2023-04-26T23:07:38.388Z,101315.94
2023-04-26T23:10:07.358Z,101307.41
2023-04-26T23:12:35.879Z,101311.59
2023-04-26T23:15:05.185Z,101317.84
2023-04-26T23:17:35.581Z,101314.25
2023-04-26T23:20:11.554Z,101322.53
2023-04-26T23:22:40.006Z,101319.31
2023-04-26T23:25:10.280Z,101325.78
2023-04-26T23:27:39.227Z,101329.50
2023-04-26T23:30:09.217Z,101322.50
2023-04-26T23:32:39.501Z,101326.00
2023-04-26T23:35:08.588Z,101321.66
2023-04-26T23:37:36.420Z,101329.13
2023-04-26T23:40:06.428Z,101328.31
2023-04-26T23:42:34.526Z,101321.56
2023-04-26T23:45:02.717Z,101321.44
2023-04-26T23:47:31.943Z,101325.03
2023-04-26T23:50:01.374Z,101319.25
2023-04-26T23:52:29.187Z,101320.84
2023-04-26T23:54:57.049Z,101321.78
2023-04-26T23:57:25.065Z,101314.94
2023-04-26T23:59:53.584Z,101313.25
